createdAt,value
2023-02-18T00:01:25.262Z,99.90
2023-02-18T00:03:54.146Z,99.90
2023-02-18T00:06:33.002Z,99.90
2023-02-18T00:09:03.922Z,99.90
2023-02-18T00:11:38.190Z,99.90
2023-02-18T00:14:15.678Z,99.90
2023-02-18T00:16:46.467Z,99.90
2023-02-18T00:19:16.927Z,99.90
2023-02-18T00:21:48.596Z,99.90
2023-02-18T00:24:29.111Z,99.90
2023-02-18T00:27:00.832Z,99.90
2023-02-18T00:29:27.995Z,99.90
2023-02-18T00:31:55.436Z,99.90
2023-02-18T00:34:25.569Z,99.90
2023-02-18T00:36:54.980Z,99.90
2023-02-18T00:39:26.898Z,99.90
2023-02-18T00:41:56.064Z,99.90
2023-02-18T00:44:25.218Z,99.90
2023-02-18T00:46:53.986Z,99.90
2023-02-18T00:49:24.682Z,99.90
2023-02-18T00:51:53.827Z,99.90
2023-02-18T00:54:22.449Z,99.90
2023-02-18T00:56:51.685Z,99.90
2023-02-18T00:59:21.124Z,99.90
2023-02-18T01:01:50.847Z,99.90
2023-02-18T01:04:20.433Z,99.90
2023-02-18T01:06:49.515Z,99.90
2023-02-18T01:09:18.852Z,99.90
2023-02-18T01:11:48.675Z,99.90
2023-02-18T01:14:15.752Z,99.90
2023-02-18T01:16:45.946Z,99.90
2023-02-18T01:19:17.037Z,99.90
2023-02-18T01:21:45.325Z,99.90
2023-02-18T01:24:16.636Z,99.90
2023-02-18T01:26:52.611Z,99.90
2023-02-18T01:29:22.418Z,99.90
2023-02-18T01:31:51.318Z,99.90
2023-02-18T01:34:23.003Z,99.90
2023-02-18T01:36:51.712Z,99.90
2023-02-18T01:39:23.441Z,99.90
2023-02-18T01:41:52.568Z,99.90
2023-02-18T01:44:27.706Z,99.90
2023-02-18T01:47:04.066Z,99.90
2023-02-18T01:49:41.644Z,99.90
2023-02-18T01:52:33.472Z,99.90
2023-02-18T01:55:01.873Z,99.90
2023-02-18T01:57:43.869Z,99.90
2023-02-18T02:00:17.445Z,99.90
2023-02-18T02:02:51.018Z,99.90
2023-02-18T02:05:24.436Z,99.90
2023-02-18T02:08:01.643Z,99.90
2023-02-18T02:10:53.766Z,99.90
2023-02-18T02:13:27.469Z,99.90
2023-02-18T02:16:06.312Z,99.90
2023-02-18T02:19:06.966Z,99.90
2023-02-18T02:22:12.870Z,99.90
2023-02-18T02:25:06.585Z,99.90
2023-02-18T02:28:18.401Z,99.90
2023-02-18T02:31:25.394Z,99.90
2023-02-18T02:34:10.071Z,99.90
2023-02-18T02:36:56.821Z,99.90
2023-02-18T02:39:39.286Z,99.90
2023-02-18T02:42:24.340Z,99.90
2023-02-18T02:45:15.997Z,99.90
2023-02-18T02:47:50.729Z,99.90
2023-02-18T02:50:43.214Z,99.90
2023-02-18T02:53:25.033Z,99.90
2023-02-18T02:55:56.262Z,99.90
2023-02-18T02:58:26.438Z,99.90
2023-02-18T03:01:05.720Z,99.90
2023-02-18T03:03:55.317Z,99.90
2023-02-18T03:06:43.441Z,99.90
2023-02-18T03:09:53.581Z,99.90
2023-02-18T03:12:35.618Z,99.90
2023-02-18T03:15:32.129Z,99.90
2023-02-18T03:18:23.227Z,99.90
2023-02-18T03:21:14.157Z,99.90
2023-02-18T03:24:18.217Z,99.90
2023-02-18T03:26:54.476Z,99.90
2023-02-18T03:29:24.373Z,99.90
2023-02-18T03:32:00.934Z,99.90
2023-02-18T03:34:38.952Z,99.90
2023-02-18T03:37:10.288Z,99.90
2023-02-18T03:39:41.616Z,99.90
2023-02-18T03:42:13.943Z,99.90
2023-02-18T03:44:44.465Z,99.90
2023-02-18T03:47:21.804Z,99.90
2023-02-18T03:49:49.970Z,99.90
2023-02-18T03:52:19.072Z,99.90
2023-02-18T03:54:47.481Z,99.90
2023-02-18T03:57:16.021Z,99.90
2023-02-18T03:59:45.963Z,99.90
2023-02-18T04:02:13.013Z,99.90
2023-02-18T04:04:44.394Z,99.90
2023-02-18T04:07:13.060Z,99.90
2023-02-18T04:09:40.547Z,99.90
2023-02-18T04:12:12.391Z,99.90
2023-02-18T04:14:43.963Z,99.90
2023-02-18T04:17:12.222Z,99.90
2023-02-18T04:19:41.867Z,99.90
2023-02-18T04:22:10.035Z,99.90
2023-02-18T04:24:40.427Z,99.90
2023-02-18T04:29:38.433Z,99.90
2023-02-18T04:32:09.596Z,99.90
2023-02-18T04:34:38.263Z,99.90
2023-02-18T04:37:08.246Z,99.90
2023-02-18T04:39:37.410Z,99.90
2023-02-18T04:42:11.908Z,99.90
2023-02-18T04:44:39.449Z,99.90
2023-02-18T04:47:15.407Z,99.90
2023-02-18T04:49:44.409Z,99.90
2023-02-18T04:52:13.552Z,99.90
2023-02-18T04:54:41.706Z,99.90
2023-02-18T04:57:10.447Z,99.90
2023-02-18T04:59:38.970Z,99.90
2023-02-18T05:02:07.513Z,99.90
2023-02-18T05:07:26.274Z,99.90
2023-02-18T05:10:04.619Z,99.90
2023-02-18T05:12:34.882Z,99.90
2023-02-18T05:15:03.923Z,99.90
2023-02-18T05:17:34.707Z,99.90
2023-02-18T05:20:05.117Z,99.90
2023-02-18T05:22:32.616Z,99.90
2023-02-18T05:25:00.857Z,99.90
2023-02-18T05:27:31.282Z,99.90
2023-02-18T05:30:02.029Z,99.90
2023-02-18T05:32:30.889Z,99.90
2023-02-18T05:34:59.609Z,99.90
2023-02-18T05:37:29.558Z,99.90
2023-02-18T05:39:59.822Z,99.90
2023-02-18T05:42:28.192Z,99.90
2023-02-18T05:44:57.371Z,99.90
2023-02-18T05:47:34.897Z,99.90
2023-02-18T05:50:06.166Z,99.90
2023-02-18T05:52:42.027Z,99.90
2023-02-18T05:55:20.625Z,99.90
2023-02-18T05:58:12.108Z,99.90
2023-02-18T06:00:43.087Z,99.90
2023-02-18T06:03:12.108Z,99.90
2023-02-18T06:05:41.841Z,99.90
2023-02-18T06:08:09.317Z,99.90
2023-02-18T06:10:47.808Z,99.90
2023-02-18T06:13:16.503Z,99.90
2023-02-18T06:15:53.344Z,99.90
2023-02-18T06:18:23.805Z,99.90
2023-02-18T06:20:53.589Z,99.90
2023-02-18T06:23:22.872Z,99.90
2023-02-18T06:25:54.158Z,99.90
2023-02-18T06:28:22.961Z,99.90
2023-02-18T06:30:51.730Z,99.90
2023-02-18T06:33:21.629Z,99.90
2023-02-18T06:36:16.793Z,99.90
2023-02-18T06:38:47.319Z,99.90
2023-02-18T06:41:16.805Z,99.90
2023-02-18T06:43:44.879Z,99.90
2023-02-18T06:46:14.839Z,99.90
2023-02-18T06:48:44.364Z,99.90
2023-02-18T06:51:15.221Z,99.90
2023-02-18T06:53:44.546Z,99.90
2023-02-18T06:56:13.241Z,99.90
2023-02-18T06:58:41.255Z,99.90
2023-02-18T07:01:09.860Z,99.90
2023-02-18T07:03:39.424Z,99.90
2023-02-18T07:06:08.322Z,99.90
2023-02-18T07:08:39.977Z,99.90
2023-02-18T07:11:09.251Z,99.90
2023-02-18T07:13:38.558Z,99.90
2023-02-18T07:16:09.327Z,99.90
2023-02-18T07:18:39.460Z,99.90
2023-02-18T07:21:10.148Z,99.90
2023-02-18T07:23:40.594Z,99.90
2023-02-18T07:26:19.284Z,99.90
2023-02-18T07:28:46.998Z,99.90
2023-02-18T07:31:25.051Z,99.90
2023-02-18T07:34:02.625Z,99.90
2023-02-18T07:36:31.010Z,99.90
2023-02-18T07:38:57.990Z,99.90
2023-02-18T07:41:27.225Z,99.90
2023-02-18T07:43:57.452Z,99.90
2023-02-18T07:46:33.489Z,99.90
2023-02-18T07:49:04.019Z,99.90
2023-02-18T07:51:32.325Z,99.90
2023-02-18T07:54:00.789Z,99.90
2023-02-18T07:56:31.924Z,99.90
2023-02-18T07:59:00.388Z,99.90
2023-02-18T08:01:30.316Z,99.90
2023-02-18T08:03:59.823Z,99.90
2023-02-18T08:06:42.190Z,99.90
2023-02-18T08:09:13.238Z,99.90
2023-02-18T08:11:43.446Z,99.90
2023-02-18T08:14:11.610Z,99.90
2023-02-18T08:16:47.989Z,99.90
2023-02-18T08:19:19.305Z,99.90
2023-02-18T08:21:47.893Z,99.90
2023-02-18T08:24:17.553Z,99.90
2023-02-18T08:26:59.951Z,99.90
2023-02-18T08:29:32.334Z,99.90
2023-02-18T08:32:01.406Z,99.90
2023-02-18T08:34:29.832Z,99.90
2023-02-18T08:37:02.507Z,99.90
2023-02-18T08:39:39.203Z,99.90
2023-02-18T08:42:09.974Z,99.90
2023-02-18T08:44:37.041Z,99.90
2023-02-18T08:48:16.025Z,99.90
2023-02-18T08:49:59.167Z,99.90
2023-02-18T08:52:28.677Z,99.90
2023-02-18T08:54:58.227Z,99.90
2023-02-18T08:57:35.106Z,99.90
2023-02-18T09:00:04.192Z,99.90
2023-02-18T09:02:31.653Z,99.90
2023-02-18T09:05:01.451Z,99.90
2023-02-18T09:07:38.735Z,99.90
2023-02-18T09:10:08.712Z,99.90
2023-02-18T09:12:37.553Z,99.90
2023-02-18T09:15:09.771Z,99.90
2023-02-18T09:17:40.796Z,99.90
2023-02-18T09:20:10.571Z,99.90
2023-02-18T09:22:38.993Z,99.90
2023-02-18T09:25:08.769Z,99.90
2023-02-18T09:27:38.233Z,99.90
2023-02-18T09:30:14.913Z,99.90
2023-02-18T09:32:44.688Z,99.90
2023-02-18T09:35:13.371Z,99.90
2023-02-18T09:37:41.947Z,99.90
2023-02-18T09:40:28.366Z,99.90
2023-02-18T09:43:02.026Z,99.90
2023-02-18T09:45:32.109Z,99.90
2023-02-18T09:48:06.124Z,99.90
2023-02-18T09:50:37.970Z,99.90
2023-02-18T09:53:05.785Z,99.90
2023-02-18T09:55:40.644Z,99.90
2023-02-18T09:58:24.584Z,99.90
2023-02-18T10:01:14.846Z,99.90
2023-02-18T10:03:55.653Z,99.90
2023-02-18T10:06:31.111Z,99.90
2023-02-18T10:09:04.855Z,99.90
2023-02-18T10:11:45.085Z,99.90
2023-02-18T10:14:17.655Z,99.90
2023-02-18T10:17:01.344Z,99.90
2023-02-18T10:19:42.664Z,99.90
2023-02-18T10:22:16.797Z,99.90
2023-02-18T10:24:48.698Z,99.90
2023-02-18T10:27:43.708Z,99.90
2023-02-18T10:31:04.887Z,99.90
2023-02-18T10:33:42.733Z,99.50
2023-02-18T10:36:27.463Z,99.40
2023-02-18T10:39:34.822Z,99.80
2023-02-18T10:42:41.605Z,99.90
2023-02-18T10:45:17.871Z,99.70
2023-02-18T10:48:05.607Z,99.30
2023-02-18T10:50:45.720Z,99.10
2023-02-18T10:53:35.171Z,98.90
2023-02-18T10:56:07.412Z,98.70
2023-02-18T10:58:46.808Z,97.50
2023-02-18T11:01:21.182Z,96.90
2023-02-18T11:04:05.379Z,96.90
2023-02-18T11:06:40.574Z,96.60
2023-02-18T11:09:35.916Z,96.10
2023-02-18T11:12:16.116Z,96.80
2023-02-18T11:14:51.674Z,96.80
2023-02-18T11:17:42.765Z,96.20
2023-02-18T11:20:42.060Z,96.50
2023-02-18T11:23:49.175Z,96.30
2023-02-18T11:26:20.363Z,96.80
2023-02-18T11:28:55.529Z,95.80
2023-02-18T11:31:28.551Z,96.30
2023-02-18T11:34:43.490Z,96.70
2023-02-18T11:37:17.390Z,96.90
2023-02-18T11:40:07.020Z,96.60
2023-02-18T11:42:35.123Z,97.00
2023-02-18T11:45:06.409Z,96.90
2023-02-18T11:47:37.241Z,96.80
2023-02-18T11:50:25.172Z,96.80
2023-02-18T11:52:54.232Z,97.20
2023-02-18T11:55:28.015Z,97.20
2023-02-18T11:58:05.863Z,97.10
2023-02-18T12:00:52.340Z,97.40
2023-02-18T12:03:39.268Z,97.60
2023-02-18T12:06:23.770Z,97.40
2023-02-18T12:09:22.545Z,97.40
2023-02-18T12:12:00.065Z,97.50
2023-02-18T12:14:29.898Z,97.70
2023-02-18T12:17:29.569Z,97.30
2023-02-18T12:20:21.858Z,97.20
2023-02-18T12:23:02.988Z,97.20
2023-02-18T12:26:12.578Z,96.70
2023-02-18T12:29:06.128Z,96.40
2023-02-18T12:31:45.720Z,96.50
2023-02-18T12:34:50.569Z,97.00
2023-02-18T12:37:57.105Z,96.80
2023-02-18T12:40:52.211Z,96.20
2023-02-18T12:43:36.329Z,92.10
2023-02-18T12:46:27.686Z,93.50
2023-02-18T12:49:30.526Z,95.60
2023-02-18T12:52:08.227Z,97.10
2023-02-18T12:54:57.847Z,99.00
2023-02-18T12:57:35.395Z,99.60
2023-02-18T13:00:59.043Z,99.90
2023-02-18T13:04:05.652Z,99.90
2023-02-18T13:06:53.643Z,99.90
2023-02-18T13:09:37.050Z,99.90
2023-02-18T13:12:30.806Z,99.90
2023-02-18T13:15:30.266Z,99.90
2023-02-18T13:18:04.505Z,99.90
2023-02-18T13:20:43.284Z,99.90
2023-02-18T13:23:35.481Z,99.90
2023-02-18T13:26:10.583Z,99.90
2023-02-18T13:29:07.461Z,99.90
2023-02-18T13:32:14.037Z,99.50
2023-02-18T13:35:10.299Z,99.90
2023-02-18T13:37:56.465Z,99.60
2023-02-18T13:40:35.371Z,99.00
2023-02-18T13:43:32.713Z,99.90
2023-02-18T13:46:26.997Z,99.30
2023-02-18T13:49:10.445Z,99.10
2023-02-18T13:51:58.166Z,99.10
2023-02-18T13:54:53.967Z,99.30
2023-02-18T13:57:29.124Z,99.90
2023-02-18T14:00:22.903Z,99.10
2023-02-18T14:03:05.059Z,99.80
2023-02-18T14:05:45.492Z,99.90
2023-02-18T14:08:38.769Z,99.30
2023-02-18T14:11:22.835Z,99.90
2023-02-18T14:13:55.986Z,99.80
2023-02-18T14:16:24.601Z,99.20
2023-02-18T14:19:02.244Z,99.80
2023-02-18T14:21:59.102Z,99.00
2023-02-18T14:24:50.056Z,99.00
2023-02-18T14:27:33.162Z,98.80
2023-02-18T14:30:08.615Z,98.90
2023-02-18T14:32:42.978Z,99.10
2023-02-18T14:35:41.630Z,99.00
2023-02-18T14:39:03.917Z,98.70
2023-02-18T14:42:12.052Z,99.10
2023-02-18T14:45:19.921Z,99.30
2023-02-18T14:48:35.754Z,99.40
2023-02-18T14:51:27.777Z,99.60
2023-02-18T14:53:56.534Z,98.80
2023-02-18T14:56:33.136Z,99.30
2023-02-18T14:59:05.237Z,98.90
2023-02-18T15:01:36.358Z,98.50
2023-02-18T15:04:05.360Z,98.70
2023-02-18T15:06:45.778Z,98.50
2023-02-18T15:09:20.353Z,98.90
2023-02-18T15:12:02.459Z,98.60
2023-02-18T15:14:40.058Z,98.80
2023-02-18T15:17:20.961Z,99.40
2023-02-18T15:19:53.091Z,99.50
2023-02-18T15:22:31.270Z,99.80
2023-02-18T15:25:07.875Z,99.50
2023-02-18T15:27:46.431Z,98.90
2023-02-18T15:30:39.650Z,99.70
2023-02-18T15:33:16.390Z,99.80
2023-02-18T15:35:45.483Z,99.80
2023-02-18T15:38:21.075Z,99.90
2023-02-18T15:40:52.784Z,99.90
2023-02-18T15:43:31.127Z,99.70
2023-02-18T15:46:07.668Z,99.70
2023-02-18T15:48:54.913Z,99.90
2023-02-18T15:51:31.486Z,99.90
2023-02-18T15:54:05.563Z,99.90
2023-02-18T15:56:44.235Z,99.90
2023-02-18T15:59:30.962Z,99.90
2023-02-18T16:02:19.471Z,99.90
2023-02-18T16:05:05.263Z,99.90
2023-02-18T16:07:59.293Z,99.90
2023-02-18T16:10:44.971Z,99.90
2023-02-18T16:13:17.003Z,99.90
2023-02-18T16:15:47.717Z,99.90
2023-02-18T16:18:24.511Z,99.90
2023-02-18T16:21:08.932Z,99.90
2023-02-18T16:23:46.551Z,99.90
2023-02-18T16:26:52.583Z,99.90
2023-02-18T16:29:27.684Z,99.90
2023-02-18T16:31:58.991Z,99.90
2023-02-18T16:34:28.592Z,99.90
2023-02-18T16:37:19.335Z,99.90
2023-02-18T16:39:46.495Z,99.90
2023-02-18T16:42:15.250Z,99.90
2023-02-18T16:44:43.962Z,99.90
2023-02-18T16:47:17.529Z,99.90
2023-02-18T16:49:51.272Z,99.90
2023-02-18T16:52:19.963Z,99.90
2023-02-18T16:54:50.574Z,99.90
2023-02-18T16:57:19.134Z,99.90
2023-02-18T16:59:47.770Z,99.90
2023-02-18T17:02:22.820Z,99.90
2023-02-18T17:04:50.126Z,99.90
2023-02-18T17:07:17.524Z,99.90
2023-02-18T17:09:44.592Z,99.90
2023-02-18T17:12:12.723Z,99.90
2023-02-18T17:14:39.917Z,99.90
2023-02-18T17:17:11.651Z,99.90
2023-02-18T17:19:38.830Z,99.90
2023-02-18T17:22:06.356Z,99.90
2023-02-18T17:24:33.530Z,99.90
2023-02-18T17:27:00.788Z,99.90
2023-02-18T17:29:28.056Z,99.90
2023-02-18T17:31:58.012Z,99.90
2023-02-18T17:34:31.250Z,99.90
2023-02-18T17:36:58.753Z,99.90
2023-02-18T17:39:25.941Z,99.90
2023-02-18T17:41:52.959Z,99.90
2023-02-18T17:44:22.538Z,99.90
2023-02-18T17:46:50.563Z,99.90
2023-02-18T17:49:17.832Z,99.90
2023-02-18T17:51:46.221Z,99.90
2023-02-18T17:54:15.292Z,99.90
2023-02-18T17:56:42.920Z,99.90
2023-02-18T17:59:10.249Z,99.90
2023-02-18T18:01:37.683Z,99.90
2023-02-18T18:04:05.202Z,99.90
2023-02-18T18:06:36.331Z,99.90
2023-02-18T18:09:03.921Z,99.90
2023-02-18T18:11:31.632Z,99.90
2023-02-18T18:13:59.884Z,99.90
2023-02-18T18:16:27.410Z,99.90
2023-02-18T18:18:54.459Z,99.90
2023-02-18T18:21:34.754Z,99.90
2023-02-18T18:24:03.035Z,99.90
2023-02-18T18:26:30.262Z,99.90
2023-02-18T18:28:57.527Z,99.90
2023-02-18T18:31:24.876Z,99.90
2023-02-18T18:33:53.700Z,99.90
2023-02-18T18:36:24.584Z,99.90
2023-02-18T18:38:52.750Z,99.90
2023-02-18T18:41:22.554Z,99.90
2023-02-18T18:43:50.077Z,99.90
2023-02-18T18:46:17.642Z,99.90
2023-02-18T18:48:44.750Z,99.90
2023-02-18T18:51:16.598Z,99.90
2023-02-18T18:53:43.826Z,99.90
2023-02-18T18:56:12.700Z,99.90
2023-02-18T18:58:39.795Z,99.90
2023-02-18T19:01:23.989Z,99.90
2023-02-18T19:03:51.294Z,99.90
2023-02-18T19:06:18.430Z,99.90
2023-02-18T19:08:47.864Z,99.90
2023-02-18T19:11:15.954Z,99.90
2023-02-18T19:13:43.093Z,99.90
2023-02-18T19:16:50.458Z,99.90
2023-02-18T19:19:20.415Z,99.90
2023-02-18T19:21:49.157Z,99.90
2023-02-18T19:24:16.672Z,99.90
2023-02-18T19:26:44.206Z,99.90
2023-02-18T19:29:11.267Z,99.90
2023-02-18T19:31:38.841Z,99.90
2023-02-18T19:34:05.842Z,99.90
2023-02-18T19:36:33.059Z,99.90
2023-02-18T19:39:00.261Z,99.90
2023-02-18T19:41:27.932Z,99.90
2023-02-18T19:43:54.986Z,99.90
2023-02-18T19:46:22.256Z,99.90
2023-02-18T19:48:52.673Z,99.90
2023-02-18T19:51:21.648Z,99.90
2023-02-18T19:53:48.865Z,99.90
2023-02-18T19:56:15.897Z,99.90
2023-02-18T19:58:43.415Z,99.90
2023-02-18T20:01:15.551Z,99.90
2023-02-18T20:03:43.525Z,99.90
2023-02-18T20:06:18.809Z,99.90
2023-02-18T20:08:47.072Z,99.90
2023-02-18T20:11:14.375Z,99.90
2023-02-18T20:13:42.466Z,99.90
2023-02-18T20:16:10.747Z,99.90
2023-02-18T20:18:37.787Z,99.90
2023-02-18T20:21:05.099Z,99.90
2023-02-18T20:23:32.236Z,99.90
2023-02-18T20:26:03.009Z,99.90
2023-02-18T20:28:30.205Z,99.90
2023-02-18T20:31:12.376Z,99.90
2023-02-18T20:33:40.197Z,99.90
2023-02-18T20:36:08.716Z,99.90
2023-02-18T20:38:37.514Z,99.90
2023-02-18T20:41:14.570Z,99.90
2023-02-18T20:43:42.444Z,99.90
2023-02-18T20:46:12.781Z,99.90
2023-02-18T20:48:40.401Z,99.90
2023-02-18T20:51:10.306Z,99.90
2023-02-18T20:53:39.345Z,99.90
2023-02-18T20:56:07.034Z,99.90
2023-02-18T20:58:35.135Z,99.90
2023-02-18T21:01:08.079Z,99.90
2023-02-18T21:03:36.691Z,99.90
2023-02-18T21:06:10.572Z,99.90
2023-02-18T21:08:40.584Z,99.90
2023-02-18T21:11:10.633Z,99.90
2023-02-18T21:13:38.034Z,99.90
2023-02-18T21:16:06.792Z,99.90
2023-02-18T21:18:34.529Z,99.90
2023-02-18T21:21:02.896Z,99.90
2023-02-18T21:23:32.589Z,99.90
2023-02-18T21:26:11.476Z,99.90
2023-02-18T21:28:39.265Z,99.90
2023-02-18T21:31:19.423Z,99.90
2023-02-18T21:33:47.302Z,99.90
2023-02-18T21:36:14.638Z,99.90
2023-02-18T21:38:44.937Z,99.90
2023-02-18T21:41:13.332Z,99.90
2023-02-18T21:43:40.819Z,99.90
2023-02-18T21:46:10.322Z,99.90
2023-02-18T21:48:55.735Z,99.90
2023-02-18T21:51:41.167Z,99.90
2023-02-18T21:54:08.411Z,99.90
2023-02-18T21:56:36.835Z,99.90
2023-02-18T21:59:04.218Z,99.90
2023-02-18T22:01:31.383Z,99.90
2023-02-18T22:03:58.766Z,99.90
2023-02-18T22:06:26.091Z,99.90
2023-02-18T22:08:53.376Z,99.90
2023-02-18T22:11:20.456Z,99.90
2023-02-18T22:13:47.734Z,99.90
2023-02-18T22:16:14.901Z,99.90
2023-02-18T22:18:42.053Z,99.90
2023-02-18T22:21:10.517Z,99.90
2023-02-18T22:23:38.622Z,99.90
2023-02-18T22:26:07.299Z,99.90
2023-02-18T22:28:35.316Z,99.90
2023-02-18T22:31:11.999Z,99.90
2023-02-18T22:33:41.486Z,99.90
2023-02-18T22:36:09.354Z,99.90
2023-02-18T22:38:38.150Z,99.90
2023-02-18T22:41:11.384Z,99.90
2023-02-18T22:43:39.087Z,99.90
2023-02-18T22:46:17.652Z,99.90
2023-02-18T22:48:45.137Z,99.90
2023-02-18T22:51:19.050Z,99.90
2023-02-18T22:53:46.860Z,99.90
2023-02-18T22:56:16.848Z,99.90
2023-02-18T22:58:46.947Z,99.90
2023-02-18T23:01:20.843Z,99.90
2023-02-18T23:03:48.326Z,99.90
2023-02-18T23:06:15.942Z,99.90
2023-02-18T23:08:43.090Z,99.90
2023-02-18T23:11:13.190Z,99.90
2023-02-18T23:13:40.982Z,99.90
2023-02-18T23:16:12.950Z,99.90
2023-02-18T23:18:40.729Z,99.90
2023-02-18T23:21:17.832Z,99.90
2023-02-18T23:23:47.218Z,99.90
2023-02-18T23:26:14.846Z,99.90
2023-02-18T23:28:47.806Z,99.90
2023-02-18T23:31:39.819Z,99.90
2023-02-18T23:34:08.875Z,99.90
2023-02-18T23:36:37.063Z,99.90
2023-02-18T23:39:08.540Z,99.90
2023-02-18T23:41:36.867Z,99.90
2023-02-18T23:44:06.342Z,99.90
2023-02-18T23:46:34.616Z,99.90
2023-02-18T23:49:02.246Z,99.90
2023-02-18T23:51:32.521Z,99.90
2023-02-18T23:54:04.137Z,99.90
2023-02-18T23:56:32.277Z,99.90
2023-02-18T23:59:02.860Z,99.90
